< < Back
Terminal Aerodrome Forecast


Current Version              Previous Versions:   1  2  3  4  5  6  7  8  9  

Terminal Aerodrome Forecast

242
FTUS42 KGSP 220500
TAFAVL
TAF
KAVL 220539Z 2206/2306 00000KT P6SM OVC110
     FM220900 00000KT 5SM BR SCT110
     FM221300 33005KT P6SM FEW050 SCT120
     FM222100 29005KT P6SM SCT060 PROB30 2221/2303 4SM TSRA BKN040CB
     FM230300 33003KT P6SM BKN040=

Latest METAR

379
SAUS70 KWBC 221100 RRD
MTRAVL
METAR KAVL 221054Z 34005KT 10SM CLR 21/18 A3016 RMK AO2 SLP184
T02060183


USA.gov is the U.S. government's official web portal to all federal, state and local government web resources and services.